Steamboat, Nevada
Current Conditions -  °F | °C
As of 3:55 PM on Sunday 23 Nov 2014 (Local Time) from KRNO Reporting Station
Overcast Overcast  
Wind Chill:   Ceiling: 12000
Heat Index:   Visibility: 10mi
Dew Point: -4°   Wind: 3mph
Humidity: 44%   Direction: 360°N
Pressure: 30.3"   Gusts: NA
Location:  39.3905°N, 119.807°W
Report Text: KRNO 232355Z 36003KT 10SM FEW110 BKN120 BKN140 OVC160 08/M04 A3030 RMK AO2 SLP264 ACSL DSNT S-W T00781039 10078 20028 55005
Loading
Personal Weather Stations






























Interactive Weather Map New forecast layout! Learn more

10-Day Weather Forecast

Advertisements
Track Severe Weather on mobile